createdAt,value
2023-10-28T00:01:04.296Z,6.17
2023-10-28T00:03:32.824Z,4.77
2023-10-28T00:06:01.393Z,4.53
2023-10-28T00:08:30.369Z,9.47
2023-10-28T00:10:58.994Z,5.77
2023-10-28T00:13:27.527Z,7.50
2023-10-28T00:15:56.052Z,14.83
2023-10-28T00:18:24.730Z,8.90
2023-10-28T00:20:53.307Z,9.60
2023-10-28T00:23:21.877Z,6.63
2023-10-28T00:25:50.957Z,7.63
2023-10-28T00:28:19.500Z,7.17
2023-10-28T00:30:49.267Z,5.00
2023-10-28T00:33:17.827Z,8.67
2023-10-28T00:35:46.434Z,7.43
2023-10-28T00:38:14.920Z,5.10
2023-10-28T00:40:45.022Z,5.77
2023-10-28T00:43:13.640Z,6.63
2023-10-28T00:45:42.483Z,12.50
2023-10-28T00:48:11.047Z,6.00
2023-10-28T00:50:39.612Z,5.50
2023-10-28T00:53:08.187Z,5.87
2023-10-28T00:55:37.295Z,211.33
2023-10-28T00:58:05.953Z,138.23
2023-10-28T01:00:34.510Z,44.10
2023-10-28T01:03:03.099Z,64.40
2023-10-28T01:05:32.895Z,33.90
2023-10-28T01:08:01.583Z,17.80
2023-10-28T01:10:33.408Z,16.90
2023-10-28T01:13:02.446Z,15.10
2023-10-28T01:15:31.223Z,30.17
2023-10-28T01:17:59.954Z,32.57
2023-10-28T01:20:28.891Z,24.07
2023-10-28T01:22:57.380Z,18.07
2023-10-28T01:25:25.930Z,19.00
2023-10-28T01:27:55.318Z,22.60
2023-10-28T01:30:23.886Z,18.87
2023-10-28T01:32:52.555Z,17.10
2023-10-28T01:35:21.301Z,18.60
2023-10-28T01:37:50.545Z,21.40
2023-10-28T01:40:19.541Z,23.83
2023-10-28T01:42:48.223Z,23.00
2023-10-28T01:45:20.134Z,27.23
2023-10-28T01:47:48.697Z,30.00
2023-10-28T01:50:18.958Z,29.30
2023-10-28T01:52:47.482Z,21.80
2023-10-28T01:55:16.700Z,16.90
2023-10-28T01:57:45.360Z,17.00
2023-10-28T02:00:19.112Z,18.57
2023-10-28T02:02:48.001Z,17.90
2023-10-28T02:05:19.511Z,19.13
2023-10-28T02:07:48.189Z,19.47
2023-10-28T02:10:16.718Z,18.20
2023-10-28T02:12:45.831Z,18.47
2023-10-28T02:15:15.142Z,18.83
2023-10-28T02:17:43.694Z,16.70
2023-10-28T02:20:12.717Z,15.13
2023-10-28T02:22:41.820Z,13.70
2023-10-28T02:25:12.185Z,11.50
2023-10-28T02:27:40.738Z,11.63
2023-10-28T02:30:12.016Z,10.00
2023-10-28T02:32:40.595Z,9.87
2023-10-28T02:35:09.614Z,8.43
2023-10-28T02:37:38.166Z,8.50
2023-10-28T02:40:10.640Z,7.60
2023-10-28T02:42:39.398Z,8.03
2023-10-28T02:45:11.587Z,8.67
2023-10-28T02:47:40.102Z,8.53
2023-10-28T02:50:10.224Z,9.17
2023-10-28T02:52:38.875Z,9.67
2023-10-28T02:55:08.128Z,9.47
2023-10-28T02:57:36.705Z,11.30
2023-10-28T03:00:08.533Z,12.80
2023-10-28T03:02:37.117Z,14.03
2023-10-28T03:05:07.201Z,11.57
2023-10-28T03:07:35.744Z,14.43
2023-10-28T03:10:04.332Z,15.20
2023-10-28T03:12:32.904Z,17.00
2023-10-28T03:15:01.415Z,13.27
2023-10-28T03:17:30.281Z,18.03
2023-10-28T03:19:59.356Z,13.27
2023-10-28T03:22:28.022Z,13.00
2023-10-28T03:24:56.550Z,12.40
2023-10-28T03:27:25.110Z,11.60
2023-10-28T03:29:54.285Z,11.40
2023-10-28T03:32:23.007Z,10.30
2023-10-28T03:34:52.142Z,9.07
2023-10-28T03:37:20.677Z,9.10
2023-10-28T03:39:49.232Z,9.87
2023-10-28T03:42:17.774Z,10.53
2023-10-28T03:44:46.284Z,10.07
2023-10-28T03:47:14.768Z,10.50
2023-10-28T03:49:43.315Z,11.73
2023-10-28T03:52:12.241Z,11.87
2023-10-28T03:54:41.061Z,12.10
2023-10-28T03:57:09.554Z,12.20
2023-10-28T03:59:38.101Z,11.37
2023-10-28T04:02:06.743Z,16.90
2023-10-28T04:04:35.499Z,20.00
2023-10-28T04:07:04.152Z,23.23
2023-10-28T04:09:32.672Z,25.83
2023-10-28T04:12:02.184Z,24.43
2023-10-28T04:14:30.650Z,23.83
2023-10-28T04:16:59.252Z,22.50
2023-10-28T04:19:27.950Z,20.53
2023-10-28T04:21:56.466Z,18.70
2023-10-28T04:24:26.102Z,18.80
2023-10-28T04:26:54.921Z,20.03
2023-10-28T04:29:23.427Z,21.50
2023-10-28T04:31:51.992Z,19.77
2023-10-28T04:34:20.744Z,21.30
2023-10-28T04:36:49.226Z,15.47
2023-10-28T04:39:17.764Z,16.00
2023-10-28T04:41:46.576Z,14.97
2023-10-28T04:44:15.400Z,15.13
2023-10-28T04:46:43.964Z,14.93
2023-10-28T04:49:13.251Z,13.33
2023-10-28T04:51:41.718Z,12.97
2023-10-28T04:54:10.532Z,12.20
2023-10-28T04:56:39.201Z,12.70
2023-10-28T04:59:09.121Z,12.57
2023-10-28T05:01:37.746Z,12.87
2023-10-28T05:04:06.605Z,12.30
2023-10-28T05:06:35.702Z,13.80
2023-10-28T05:09:04.543Z,14.03
2023-10-28T05:11:33.062Z,14.03
2023-10-28T05:14:01.569Z,12.93
2023-10-28T05:16:30.099Z,14.43
2023-10-28T05:18:58.593Z,12.13
2023-10-28T05:21:29.045Z,12.77
2023-10-28T05:23:57.533Z,12.60
2023-10-28T05:26:26.043Z,17.87
2023-10-28T05:28:56.217Z,13.33
2023-10-28T05:31:25.531Z,12.80
2023-10-28T05:33:54.501Z,13.93
2023-10-28T05:36:23.101Z,13.57
2023-10-28T05:38:51.982Z,13.77
2023-10-28T05:41:20.501Z,14.63
2023-10-28T05:43:50.666Z,12.43
2023-10-28T05:46:21.689Z,11.50
2023-10-28T05:48:50.206Z,11.80
2023-10-28T05:51:19.535Z,13.30
2023-10-28T05:53:48.046Z,12.07
2023-10-28T05:56:18.252Z,11.93
2023-10-28T05:58:47.166Z,12.85
2023-10-28T06:01:16.287Z,13.13
2023-10-28T06:03:44.838Z,14.80
2023-10-28T06:06:13.566Z,13.57
2023-10-28T06:08:42.139Z,13.03
2023-10-28T06:11:13.652Z,17.77
2023-10-28T06:13:42.356Z,20.48
2023-10-28T06:16:10.847Z,20.13
2023-10-28T06:18:40.198Z,17.33
2023-10-28T06:21:08.900Z,16.15
2023-10-28T06:23:38.162Z,14.40
2023-10-28T06:26:06.981Z,13.48
2023-10-28T06:28:35.969Z,12.65
2023-10-28T06:31:04.673Z,12.98
2023-10-28T06:33:34.409Z,12.35
2023-10-28T06:36:02.933Z,13.02
2023-10-28T06:38:32.358Z,13.57
2023-10-28T06:41:00.860Z,12.77
2023-10-28T06:43:29.397Z,18.83
2023-10-28T06:45:57.884Z,12.90
2023-10-28T06:48:26.530Z,12.70
2023-10-28T06:50:55.067Z,15.02
2023-10-28T06:53:24.037Z,18.00
2023-10-28T06:55:52.560Z,16.83
2023-10-28T06:58:21.051Z,14.45
2023-10-28T07:00:49.589Z,15.85
2023-10-28T07:03:19.120Z,16.50
2023-10-28T07:05:48.088Z,13.95
2023-10-28T07:08:17.406Z,14.52
2023-10-28T07:10:46.002Z,16.60
2023-10-28T07:13:14.497Z,17.73
2023-10-28T07:15:43.580Z,17.50
2023-10-28T07:18:12.077Z,20.17
2023-10-28T07:20:42.085Z,16.30
2023-10-28T07:23:10.778Z,17.02
2023-10-28T07:25:39.275Z,20.08
2023-10-28T07:28:14.184Z,15.35
2023-10-28T07:30:53.886Z,15.10
2023-10-28T07:33:23.631Z,15.90
2023-10-28T07:35:54.861Z,18.25
2023-10-28T07:38:24.192Z,14.85
2023-10-28T07:40:52.825Z,15.00
2023-10-28T07:43:21.600Z,14.18
2023-10-28T07:45:50.149Z,12.95
2023-10-28T07:48:18.606Z,13.70
2023-10-28T07:50:47.270Z,12.18
2023-10-28T07:53:15.774Z,12.85
2023-10-28T07:55:44.350Z,12.13
2023-10-28T07:58:13.048Z,13.48
2023-10-28T08:00:41.721Z,12.75
2023-10-28T08:03:10.711Z,11.52
2023-10-28T08:05:39.661Z,11.05
2023-10-28T08:08:08.221Z,11.65
2023-10-28T08:10:36.826Z,9.70
2023-10-28T08:13:05.298Z,9.10
2023-10-28T08:15:33.883Z,9.60
2023-10-28T08:18:02.976Z,8.02
2023-10-28T08:20:31.457Z,9.10
2023-10-28T08:23:00.035Z,12.02
2023-10-28T08:25:28.517Z,10.55
2023-10-28T08:27:57.447Z,9.70
2023-10-28T08:30:27.454Z,9.43
2023-10-28T08:32:58.044Z,8.27
2023-10-28T08:35:30.213Z,7.93
2023-10-28T08:37:58.973Z,8.00
2023-10-28T08:40:28.278Z,8.80
2023-10-28T08:43:00.644Z,8.48
2023-10-28T08:45:32.985Z,8.18
2023-10-28T08:48:01.830Z,9.02
2023-10-28T08:50:30.425Z,7.80
2023-10-28T08:53:05.395Z,8.30
2023-10-28T08:55:36.990Z,7.75
2023-10-28T08:58:11.303Z,8.60
2023-10-28T09:00:41.208Z,7.25
2023-10-28T09:03:10.515Z,6.93
2023-10-28T09:05:40.754Z,7.35
2023-10-28T09:08:09.311Z,7.60
2023-10-28T09:10:38.378Z,8.85
2023-10-28T09:13:10.221Z,8.27
2023-10-28T09:15:39.480Z,6.72
2023-10-28T09:18:08.388Z,7.63
2023-10-28T09:20:44.069Z,7.75
2023-10-28T09:23:15.672Z,6.45
2023-10-28T09:25:44.217Z,6.75
2023-10-28T09:28:18.842Z,5.50
2023-10-28T09:30:50.214Z,7.95
2023-10-28T09:33:19.400Z,6.80
2023-10-28T09:35:48.713Z,6.78
2023-10-28T09:38:17.503Z,6.18
2023-10-28T09:40:46.331Z,7.07
2023-10-28T09:43:17.099Z,6.85
2023-10-28T09:45:55.693Z,6.97
2023-10-28T09:48:24.978Z,6.72
2023-10-28T09:50:54.591Z,6.88
2023-10-28T09:53:33.275Z,7.97
2023-10-28T09:56:06.722Z,7.15
2023-10-28T09:58:45.233Z,6.93
2023-10-28T10:01:26.832Z,6.80
2023-10-28T10:03:58.695Z,6.85
2023-10-28T10:06:28.896Z,5.68
2023-10-28T10:08:58.089Z,5.18
2023-10-28T10:11:27.822Z,5.45
2023-10-28T10:13:59.775Z,7.07
2023-10-28T10:16:41.411Z,5.28
2023-10-28T10:19:18.097Z,6.13
2023-10-28T10:21:56.372Z,5.85
2023-10-28T10:24:27.058Z,5.45
2023-10-28T10:27:01.059Z,6.75
2023-10-28T10:29:40.982Z,5.95
2023-10-28T10:32:21.169Z,5.18
2023-10-28T10:34:49.846Z,5.05
2023-10-28T10:37:28.440Z,6.57
2023-10-28T10:39:59.106Z,4.85
2023-10-28T10:42:28.493Z,6.10
2023-10-28T10:44:58.002Z,7.68
2023-10-28T10:47:29.854Z,10.68
2023-10-28T10:49:59.371Z,9.48
2023-10-28T10:52:28.558Z,10.68
2023-10-28T10:55:03.039Z,12.38
2023-10-28T10:57:32.577Z,8.07
2023-10-28T11:00:02.176Z,7.60
2023-10-28T11:02:30.837Z,6.80
2023-10-28T11:05:00.359Z,6.30
2023-10-28T11:07:30.247Z,7.32
2023-10-28T11:09:59.447Z,6.07
2023-10-28T11:12:27.995Z,6.20
2023-10-28T11:14:57.329Z,7.60
2023-10-28T11:17:26.777Z,7.18
2023-10-28T11:19:55.518Z,4.38
2023-10-28T11:22:24.264Z,4.20
2023-10-28T11:24:59.618Z,6.20
2023-10-28T11:27:28.791Z,5.18
2023-10-28T11:30:00.245Z,7.88
2023-10-28T11:32:29.894Z,12.50
2023-10-28T11:34:59.552Z,8.55
2023-10-28T11:37:28.410Z,10.60
2023-10-28T11:39:57.123Z,10.50
2023-10-28T11:42:26.751Z,8.00
2023-10-28T11:44:55.254Z,6.63
2023-10-28T11:47:25.051Z,8.45
2023-10-28T11:49:55.833Z,7.65
2023-10-28T11:52:24.334Z,6.85
2023-10-28T11:54:52.828Z,8.23
2023-10-28T11:57:21.400Z,7.80
2023-10-28T11:59:49.862Z,7.10
2023-10-28T12:02:18.410Z,5.70
2023-10-28T12:04:46.973Z,5.20
2023-10-28T12:07:15.462Z,6.60
2023-10-28T12:09:43.913Z,4.40
2023-10-28T12:12:12.893Z,4.85
2023-10-28T12:14:42.564Z,4.30
2023-10-28T12:17:13.212Z,5.10
2023-10-28T12:19:44.486Z,5.63
2023-10-28T12:22:13.077Z,6.82
2023-10-28T12:24:41.675Z,8.07
2023-10-28T12:27:11.748Z,5.28
2023-10-28T12:29:40.338Z,7.30
2023-10-28T12:32:09.067Z,6.45
2023-10-28T12:34:37.868Z,4.85
2023-10-28T12:37:06.462Z,7.32
2023-10-28T12:39:35.150Z,5.03
2023-10-28T12:42:05.211Z,5.65
2023-10-28T12:44:33.858Z,5.30
2023-10-28T12:47:02.484Z,6.32
2023-10-28T12:49:30.979Z,5.90
2023-10-28T12:51:59.518Z,6.20
2023-10-28T12:54:29.754Z,6.40
2023-10-28T12:56:58.247Z,7.95
2023-10-28T12:59:26.786Z,6.80
2023-10-28T13:01:55.455Z,8.85
2023-10-28T13:04:24.992Z,7.97
2023-10-28T13:06:53.598Z,7.45
2023-10-28T13:09:22.854Z,8.35
2023-10-28T13:11:51.634Z,7.80
2023-10-28T13:14:21.416Z,7.90
2023-10-28T13:16:51.565Z,7.45
2023-10-28T13:19:21.637Z,7.55
2023-10-28T13:21:51.741Z,8.10
2023-10-28T13:24:21.601Z,7.68
2023-10-28T13:26:50.156Z,6.60
2023-10-28T13:29:19.450Z,7.30
2023-10-28T13:31:48.108Z,9.43
2023-10-28T13:34:16.726Z,7.93
2023-10-28T13:36:46.990Z,7.50
2023-10-28T13:39:15.619Z,8.02
2023-10-28T13:41:44.376Z,6.68
2023-10-28T13:44:13.310Z,8.07
2023-10-28T13:46:41.917Z,9.32
2023-10-28T13:49:10.863Z,20.35
2023-10-28T13:51:39.533Z,17.05
2023-10-28T13:54:08.429Z,13.43
2023-10-28T13:56:37.145Z,11.07
2023-10-28T13:59:08.861Z,11.07
2023-10-28T14:01:37.452Z,7.40
2023-10-28T14:04:08.028Z,9.45
2023-10-28T14:06:36.530Z,11.82
2023-10-28T14:09:05.101Z,9.80
2023-10-28T14:11:34.214Z,7.97
2023-10-28T14:14:02.844Z,8.80
2023-10-28T14:16:31.558Z,7.55
2023-10-28T14:19:03.061Z,6.57
2023-10-28T14:21:31.737Z,6.38
2023-10-28T14:24:00.764Z,6.70
2023-10-28T14:26:29.366Z,7.40
2023-10-28T14:28:58.000Z,6.38
2023-10-28T14:31:26.512Z,6.80
2023-10-28T14:33:55.657Z,8.00
2023-10-28T14:36:24.129Z,7.90
2023-10-28T14:38:52.637Z,9.93
2023-10-28T14:41:21.180Z,7.43
2023-10-28T14:43:50.073Z,7.80
2023-10-28T14:46:18.600Z,6.93
2023-10-28T14:48:47.090Z,10.43
2023-10-28T14:51:15.953Z,8.07
2023-10-28T14:53:44.459Z,9.95
2023-10-28T14:56:13.713Z,6.68
2023-10-28T14:58:42.548Z,7.22
2023-10-28T15:01:11.766Z,8.00
2023-10-28T15:03:41.430Z,7.47
2023-10-28T15:06:11.441Z,7.22
2023-10-28T15:08:40.008Z,6.13
2023-10-28T15:11:08.737Z,6.72
2023-10-28T15:13:37.341Z,6.60
2023-10-28T15:16:12.785Z,6.93
2023-10-28T15:18:45.096Z,7.38
2023-10-28T15:21:16.900Z,7.93
2023-10-28T15:23:46.059Z,7.18
2023-10-28T15:26:16.527Z,6.78
2023-10-28T15:28:45.843Z,6.82
2023-10-28T15:31:15.685Z,8.65
2023-10-28T15:33:46.226Z,5.80
2023-10-28T15:36:15.985Z,7.70
2023-10-28T15:38:44.704Z,7.15
2023-10-28T15:41:14.014Z,7.70
2023-10-28T15:43:42.710Z,7.15
2023-10-28T15:46:13.094Z,7.55
2023-10-28T15:48:42.739Z,7.20
2023-10-28T15:51:18.511Z,7.75
2023-10-28T15:53:47.416Z,7.75
2023-10-28T15:56:16.501Z,6.90
2023-10-28T15:58:46.998Z,7.95
2023-10-28T16:01:15.681Z,14.45
2023-10-28T16:03:44.353Z,7.18
2023-10-28T16:06:13.281Z,8.15
2023-10-28T16:08:44.069Z,12.23
2023-10-28T16:11:12.761Z,6.60
2023-10-28T16:13:43.312Z,7.25
2023-10-28T16:16:13.864Z,7.50
2023-10-28T16:18:43.666Z,7.60
2023-10-28T16:21:12.247Z,6.60
2023-10-28T16:23:41.374Z,10.02
2023-10-28T16:26:09.956Z,6.90
2023-10-28T16:28:38.566Z,6.57
2023-10-28T16:31:09.307Z,6.78
2023-10-28T16:33:39.089Z,6.22
2023-10-28T16:36:08.406Z,7.28
2023-10-28T16:38:37.652Z,5.88
2023-10-28T16:41:06.968Z,7.25
2023-10-28T16:43:36.439Z,6.65
2023-10-28T16:46:06.244Z,6.18
2023-10-28T16:48:35.105Z,6.25
2023-10-28T16:51:04.949Z,6.10
2023-10-28T16:53:36.012Z,7.70
2023-10-28T16:56:06.595Z,6.90
2023-10-28T16:58:38.568Z,5.90
2023-10-28T17:01:09.974Z,5.78
2023-10-28T17:03:38.570Z,5.65
2023-10-28T17:06:07.625Z,10.10
2023-10-28T17:08:36.544Z,6.63
2023-10-28T17:11:06.031Z,5.90
2023-10-28T17:13:34.579Z,8.13
2023-10-28T17:16:03.237Z,6.77
2023-10-28T17:18:32.624Z,7.87
2023-10-28T17:21:06.569Z,6.50
2023-10-28T17:23:35.903Z,13.30
2023-10-28T17:26:05.270Z,8.37
2023-10-28T17:28:35.091Z,7.47
2023-10-28T17:31:06.641Z,6.67
2023-10-28T17:33:35.360Z,6.63
2023-10-28T17:36:04.281Z,5.73
2023-10-28T17:38:41.655Z,6.57
2023-10-28T17:41:16.577Z,7.80
2023-10-28T17:43:51.951Z,7.60
2023-10-28T17:46:22.205Z,5.80
2023-10-28T17:48:51.591Z,5.80
2023-10-28T17:51:20.162Z,8.83
2023-10-28T17:53:48.905Z,6.03
2023-10-28T17:56:19.382Z,7.70
2023-10-28T17:58:49.847Z,5.53
2023-10-28T18:01:18.404Z,5.30
2023-10-28T18:03:46.962Z,5.87
2023-10-28T18:06:15.622Z,5.70
2023-10-28T18:08:44.825Z,6.10
2023-10-28T18:11:16.562Z,8.10
2023-10-28T18:13:47.322Z,6.63
2023-10-28T18:16:18.958Z,7.80
2023-10-28T18:18:48.783Z,4.90
2023-10-28T18:21:17.770Z,5.30
2023-10-28T18:23:48.410Z,5.10
2023-10-28T18:26:18.970Z,5.63
2023-10-28T18:28:47.584Z,6.77
2023-10-28T18:31:19.550Z,5.43
2023-10-28T18:33:57.600Z,5.60
2023-10-28T18:36:27.172Z,6.10
2023-10-28T18:38:55.680Z,5.10
2023-10-28T18:41:24.225Z,5.07
2023-10-28T18:43:53.514Z,6.17
2023-10-28T18:46:22.137Z,8.53
2023-10-28T18:48:50.721Z,6.73
2023-10-28T18:51:19.829Z,4.80
2023-10-28T18:53:48.477Z,4.83
2023-10-28T18:56:17.064Z,5.27
2023-10-28T18:58:46.542Z,6.00
2023-10-28T19:01:16.344Z,5.00
2023-10-28T19:03:51.275Z,5.10
2023-10-28T19:06:21.078Z,8.33
2023-10-28T19:08:50.711Z,5.60
2023-10-28T19:11:19.270Z,5.10
2023-10-28T19:13:47.931Z,7.97
2023-10-28T19:16:16.461Z,6.57
2023-10-28T19:18:45.134Z,5.50
2023-10-28T19:21:14.048Z,4.90
2023-10-28T19:23:42.669Z,4.70
2023-10-28T19:26:11.303Z,5.80
2023-10-28T19:28:40.189Z,6.87
2023-10-28T19:31:08.737Z,5.57
2023-10-28T19:33:37.457Z,5.67
2023-10-28T19:36:09.882Z,6.60
2023-10-28T19:38:40.440Z,5.90
2023-10-28T19:41:10.754Z,5.03
2023-10-28T19:43:39.709Z,6.20
2023-10-28T19:46:09.139Z,5.37
2023-10-28T19:48:38.330Z,4.90
2023-10-28T19:51:08.206Z,5.30
2023-10-28T19:53:43.707Z,7.37
2023-10-28T19:56:12.385Z,4.97
2023-10-28T19:58:42.803Z,5.73
2023-10-28T20:01:14.821Z,5.30
2023-10-28T20:03:43.485Z,5.33
2023-10-28T20:06:12.061Z,5.20
2023-10-28T20:08:40.977Z,4.60
2023-10-28T20:11:18.051Z,6.63
2023-10-28T20:13:48.662Z,4.97
2023-10-28T20:16:17.195Z,5.10
2023-10-28T20:18:45.795Z,5.60
2023-10-28T20:21:15.120Z,4.50
2023-10-28T20:23:44.308Z,5.20
2023-10-28T20:26:13.515Z,7.20
2023-10-28T20:28:42.921Z,4.37
2023-10-28T20:31:13.311Z,5.57
2023-10-28T20:33:41.982Z,4.70
2023-10-28T20:36:10.970Z,4.90
2023-10-28T20:38:39.507Z,6.10
2023-10-28T20:41:08.058Z,10.07
2023-10-28T20:43:37.419Z,5.17
2023-10-28T20:46:08.771Z,5.50
2023-10-28T20:48:37.457Z,4.60
2023-10-28T20:51:06.635Z,5.37
2023-10-28T20:53:35.270Z,6.77
2023-10-28T20:56:03.868Z,4.90
2023-10-28T20:58:33.280Z,5.50
2023-10-28T21:01:01.769Z,4.30
2023-10-28T21:03:33.524Z,4.90
2023-10-28T21:06:13.072Z,4.90
2023-10-28T21:08:42.554Z,4.67
2023-10-28T21:11:15.305Z,4.93
2023-10-28T21:13:43.868Z,4.70
2023-10-28T21:16:12.392Z,4.90
2023-10-28T21:18:40.932Z,5.20
2023-10-28T21:21:09.479Z,5.47
2023-10-28T21:23:38.927Z,4.40
2023-10-28T21:26:07.427Z,5.07
2023-10-28T21:28:36.016Z,4.77
2023-10-28T21:31:05.715Z,5.10
2023-10-28T21:33:34.356Z,4.77
2023-10-28T21:36:05.246Z,5.40
2023-10-28T21:38:33.752Z,6.40
2023-10-28T21:41:02.342Z,4.77
2023-10-28T21:43:30.821Z,4.07
2023-10-28T21:46:01.191Z,4.20
2023-10-28T21:48:29.873Z,4.67
2023-10-28T21:50:58.994Z,4.77
2023-10-28T21:53:27.502Z,5.00
2023-10-28T21:56:00.682Z,4.23
2023-10-28T21:58:29.606Z,4.30
2023-10-28T22:00:58.927Z,5.83
2023-10-28T22:03:28.052Z,4.43
2023-10-28T22:05:56.649Z,4.60
2023-10-28T22:08:25.262Z,4.53
2023-10-28T22:10:53.853Z,4.37
2023-10-28T22:13:22.353Z,4.40
2023-10-28T22:15:50.972Z,4.40
2023-10-28T22:18:19.806Z,4.70
2023-10-28T22:20:48.856Z,4.27
2023-10-28T22:23:17.525Z,4.83
2023-10-28T22:25:46.579Z,3.97
2023-10-28T22:28:16.762Z,4.50
2023-10-28T22:30:48.518Z,4.70
2023-10-28T22:33:17.893Z,5.30
2023-10-28T22:35:47.479Z,4.40
2023-10-28T22:38:16.605Z,4.80
2023-10-28T22:40:45.460Z,3.90
2023-10-28T22:43:13.985Z,6.10
2023-10-28T22:45:43.409Z,4.20
2023-10-28T22:48:12.082Z,4.43
2023-10-28T22:50:41.382Z,4.80
2023-10-28T22:53:13.093Z,3.97
2023-10-28T22:55:41.687Z,5.37
2023-10-28T22:58:10.846Z,4.67
2023-10-28T23:00:39.543Z,4.40
2023-10-28T23:03:09.614Z,4.90
2023-10-28T23:05:40.536Z,4.53
2023-10-28T23:08:10.068Z,4.70
2023-10-28T23:10:38.850Z,4.37
2023-10-28T23:13:08.344Z,4.80
2023-10-28T23:15:37.363Z,4.90
2023-10-28T23:18:05.983Z,4.63
2023-10-28T23:20:35.113Z,4.20
2023-10-28T23:23:03.703Z,4.50
2023-10-28T23:25:32.195Z,3.93
2023-10-28T23:28:00.768Z,4.30
2023-10-28T23:30:31.155Z,4.33
2023-10-28T23:33:00.605Z,5.80
2023-10-28T23:35:34.919Z,4.10
2023-10-28T23:38:03.871Z,4.93
2023-10-28T23:40:34.263Z,4.90
2023-10-28T23:43:05.615Z,5.00
2023-10-28T23:45:35.395Z,5.60
2023-10-28T23:48:05.327Z,5.00
2023-10-28T23:50:33.955Z,4.77
2023-10-28T23:53:02.659Z,8.90
2023-10-28T23:55:31.242Z,5.20
2023-10-28T23:57:59.799Z,4.83
